createdAt,value
2018-03-19T00:01:18.490Z,9.05
2018-03-19T00:03:45.363Z,10.25
2018-03-19T00:06:12.305Z,9.15
2018-03-19T00:08:39.202Z,9.10
2018-03-19T00:11:06.185Z,8.80
2018-03-19T00:13:33.794Z,8.68
2018-03-19T00:16:00.771Z,8.82
2018-03-19T00:18:27.684Z,7.05
2018-03-19T00:20:54.562Z,9.30
2018-03-19T00:23:21.513Z,10.40
2018-03-19T00:25:48.383Z,9.05
2018-03-19T00:28:16.054Z,7.95
2018-03-19T00:30:42.919Z,8.35
2018-03-19T00:33:09.775Z,8.50
2018-03-19T00:35:36.705Z,8.38
2018-03-19T00:38:03.659Z,6.87
2018-03-19T00:40:30.603Z,8.63
2018-03-19T00:42:57.556Z,8.32
2018-03-19T00:45:24.492Z,8.48
2018-03-19T00:47:51.439Z,8.73
2018-03-19T00:50:18.293Z,9.10
2018-03-19T00:52:45.235Z,8.27
2018-03-19T00:55:12.146Z,9.35
2018-03-19T00:57:39.848Z,8.52
2018-03-19T01:00:06.736Z,9.15
2018-03-19T01:02:34.420Z,9.25
2018-03-19T01:05:01.428Z,9.10
2018-03-19T01:07:28.350Z,9.02
2018-03-19T01:09:55.289Z,10.02
2018-03-19T01:12:22.155Z,8.60
2018-03-19T01:14:49.019Z,8.02
2018-03-19T01:17:16.374Z,9.10
2018-03-19T01:19:43.248Z,9.45
2018-03-19T01:22:10.251Z,8.98
2018-03-19T01:24:37.131Z,8.68
2018-03-19T01:27:04.808Z,8.45
2018-03-19T01:29:32.425Z,8.27
2018-03-19T01:31:59.359Z,8.95
2018-03-19T01:34:26.216Z,9.93
2018-03-19T01:36:53.220Z,8.43
2018-03-19T01:39:20.188Z,8.57
2018-03-19T01:41:47.146Z,8.05
2018-03-19T01:44:14.003Z,9.15
2018-03-19T01:46:40.887Z,9.48
2018-03-19T01:49:08.581Z,8.90
2018-03-19T01:51:35.451Z,8.07
2018-03-19T01:54:02.381Z,8.85
2018-03-19T01:56:29.258Z,9.57
2018-03-19T01:58:56.189Z,9.45
2018-03-19T02:01:23.056Z,8.65
2018-03-19T02:03:49.987Z,8.57
2018-03-19T02:06:16.925Z,8.88
2018-03-19T02:08:43.867Z,7.03
2018-03-19T02:11:10.820Z,8.75
2018-03-19T02:13:37.771Z,8.90
2018-03-19T02:16:04.649Z,9.57
2018-03-19T02:18:31.516Z,8.35
2018-03-19T02:20:58.444Z,8.95
2018-03-19T02:23:25.396Z,7.85
2018-03-19T02:25:52.377Z,8.95
2018-03-19T02:28:19.419Z,8.35
2018-03-19T02:30:46.306Z,9.35
2018-03-19T02:33:13.178Z,8.95
2018-03-19T02:35:40.168Z,8.70
2018-03-19T02:38:07.112Z,8.43
2018-03-19T02:40:33.986Z,8.10
2018-03-19T02:43:00.921Z,8.30
2018-03-19T02:45:27.854Z,9.52
2018-03-19T02:47:54.765Z,7.93
2018-03-19T02:50:21.652Z,9.13
2018-03-19T02:52:48.637Z,9.10
2018-03-19T02:55:15.568Z,8.10
2018-03-19T02:57:42.565Z,9.32
2018-03-19T03:00:09.530Z,9.23
2018-03-19T03:02:36.537Z,10.52
2018-03-19T03:05:03.536Z,8.40
2018-03-19T03:07:30.550Z,8.50
2018-03-19T03:09:57.420Z,8.82
2018-03-19T03:12:24.364Z,8.85
2018-03-19T03:14:51.311Z,8.93
2018-03-19T03:17:18.182Z,8.73
2018-03-19T03:19:45.123Z,7.80
2018-03-19T03:22:12.003Z,8.68
2018-03-19T03:24:38.948Z,9.73
2018-03-19T03:27:06.561Z,13.82
2018-03-19T03:29:33.516Z,10.40
2018-03-19T03:32:00.397Z,9.35
2018-03-19T03:34:28.068Z,7.03
2018-03-19T03:36:54.942Z,8.52
2018-03-19T03:39:21.829Z,8.20
2018-03-19T03:41:49.773Z,9.00
2018-03-19T03:44:16.638Z,9.02
2018-03-19T03:46:43.595Z,9.30
2018-03-19T03:49:10.447Z,9.20
2018-03-19T03:51:37.340Z,9.20
2018-03-19T03:54:04.304Z,8.35
2018-03-19T03:56:31.229Z,8.05
2018-03-19T03:58:58.080Z,8.73
2018-03-19T04:01:25.028Z,8.38
2018-03-19T04:03:51.969Z,8.45
2018-03-19T04:06:18.943Z,9.25
2018-03-19T04:08:45.881Z,9.90
2018-03-19T04:11:12.819Z,8.30
2018-03-19T04:13:39.788Z,8.02
2018-03-19T04:16:06.744Z,11.10
2018-03-19T04:18:33.611Z,8.65
2018-03-19T04:21:00.552Z,9.52
2018-03-19T04:23:27.430Z,7.70
2018-03-19T04:25:54.372Z,9.45
2018-03-19T04:28:21.260Z,10.07
2018-03-19T04:30:48.195Z,9.57
2018-03-19T04:33:15.064Z,9.10
2018-03-19T04:35:42.764Z,8.88
2018-03-19T04:38:10.534Z,9.90
2018-03-19T04:40:37.484Z,9.40
2018-03-19T04:43:04.396Z,10.23
2018-03-19T04:45:32.243Z,10.52
2018-03-19T04:47:59.933Z,9.85
2018-03-19T04:50:27.600Z,10.07
2018-03-19T04:52:55.282Z,10.40
2018-03-19T04:55:22.180Z,10.00
2018-03-19T04:57:49.135Z,8.18
2018-03-19T05:00:16.839Z,10.68
2018-03-19T05:02:43.767Z,9.38
2018-03-19T05:05:10.697Z,9.77
2018-03-19T05:07:38.368Z,10.30
2018-03-19T05:10:06.036Z,10.60
2018-03-19T05:12:33.031Z,9.95
2018-03-19T05:14:59.966Z,8.77
2018-03-19T05:17:26.891Z,10.50
2018-03-19T05:19:53.792Z,10.93
2018-03-19T05:22:20.657Z,9.52
2018-03-19T05:24:48.389Z,8.98
2018-03-19T05:27:28.961Z,9.27
2018-03-19T05:29:56.821Z,9.60
2018-03-19T05:32:23.760Z,9.68
2018-03-19T05:34:50.723Z,13.35
2018-03-19T05:37:17.682Z,15.70
2018-03-19T05:39:46.219Z,15.65
2018-03-19T05:42:13.151Z,18.37
2018-03-19T05:44:40.091Z,16.73
2018-03-19T05:47:07.179Z,14.32
2018-03-19T05:49:34.070Z,10.57
2018-03-19T05:52:01.759Z,17.60
2018-03-19T05:54:28.716Z,19.60
2018-03-19T05:56:55.649Z,16.95
2018-03-19T05:59:22.623Z,14.05
2018-03-19T06:01:49.547Z,16.60
2018-03-19T06:04:16.439Z,13.90
2018-03-19T06:06:43.396Z,12.32
2018-03-19T06:09:11.015Z,9.98
2018-03-19T06:11:37.922Z,13.73
2018-03-19T06:14:04.880Z,10.68
2018-03-19T06:16:31.776Z,10.85
2018-03-19T06:18:58.720Z,12.00
2018-03-19T06:21:25.592Z,9.80
2018-03-19T06:23:52.532Z,9.30
2018-03-19T06:26:19.407Z,10.38
2018-03-19T06:28:46.366Z,10.70
2018-03-19T06:31:13.245Z,8.80
2018-03-19T06:33:40.193Z,9.60
2018-03-19T06:36:07.186Z,9.63
2018-03-19T06:38:34.190Z,11.05
2018-03-19T06:41:01.135Z,11.18
2018-03-19T06:43:28.056Z,12.40
2018-03-19T06:45:55.000Z,12.98
2018-03-19T06:48:21.947Z,9.70
2018-03-19T06:50:48.857Z,9.65
2018-03-19T06:53:15.802Z,9.05
2018-03-19T06:55:42.829Z,10.77
2018-03-19T06:58:10.553Z,17.15
2018-03-19T07:00:37.443Z,9.77
2018-03-19T07:03:05.224Z,10.05
2018-03-19T07:05:32.172Z,12.13
2018-03-19T07:07:59.048Z,10.70
2018-03-19T07:10:25.995Z,9.85
2018-03-19T07:12:52.871Z,10.25
2018-03-19T07:15:19.897Z,11.90
2018-03-19T07:17:46.804Z,12.37
2018-03-19T07:20:13.763Z,11.12
2018-03-19T07:22:40.655Z,10.38
2018-03-19T07:25:07.535Z,10.77
2018-03-19T07:27:34.583Z,10.57
2018-03-19T07:30:02.283Z,9.95
2018-03-19T07:32:29.154Z,11.95
2018-03-19T07:34:56.028Z,11.55
2018-03-19T07:37:23.702Z,14.45
2018-03-19T07:39:50.647Z,11.38
2018-03-19T07:42:17.594Z,11.07
2018-03-19T07:44:44.515Z,14.10
2018-03-19T07:47:11.448Z,12.20
2018-03-19T07:49:38.312Z,11.45
2018-03-19T07:52:05.236Z,9.25
2018-03-19T07:54:32.103Z,11.95
2018-03-19T07:56:59.071Z,10.52
2018-03-19T07:59:25.935Z,11.60
2018-03-19T08:01:52.921Z,9.77
2018-03-19T08:04:19.800Z,10.18
2018-03-19T08:06:46.724Z,9.55
2018-03-19T08:09:13.600Z,9.88
2018-03-19T08:11:40.552Z,12.13
2018-03-19T08:14:07.569Z,10.82
2018-03-19T08:16:34.434Z,9.50
2018-03-19T08:19:01.356Z,13.65
2018-03-19T08:21:28.259Z,10.25
2018-03-19T08:23:55.272Z,10.05
2018-03-19T08:26:22.148Z,10.13
2018-03-19T08:28:49.104Z,9.90
2018-03-19T08:31:15.984Z,10.75
2018-03-19T08:33:57.237Z,13.30
2018-03-19T08:36:25.815Z,10.30
2018-03-19T08:38:52.836Z,9.23
2018-03-19T08:41:19.699Z,10.48
2018-03-19T08:43:46.627Z,11.65
2018-03-19T08:46:13.580Z,12.18
2018-03-19T08:48:40.463Z,10.05
2018-03-19T08:51:07.349Z,9.88
2018-03-19T08:53:34.300Z,10.65
2018-03-19T08:56:01.333Z,11.70
2018-03-19T08:58:28.380Z,12.98
2018-03-19T09:00:56.033Z,10.40
2018-03-19T09:03:22.942Z,11.95
2018-03-19T09:05:49.906Z,11.23
2018-03-19T09:08:16.775Z,11.50
2018-03-19T09:10:44.456Z,11.27
2018-03-19T09:13:12.098Z,11.77
2018-03-19T09:15:39.040Z,11.90
2018-03-19T09:18:05.924Z,9.75
2018-03-19T09:20:32.822Z,10.77
2018-03-19T09:22:59.815Z,11.55
2018-03-19T09:25:26.826Z,12.07
2018-03-19T09:27:53.691Z,11.35
2018-03-19T09:30:20.629Z,12.93
2018-03-19T09:32:48.309Z,11.07
2018-03-19T09:35:15.256Z,10.05
2018-03-19T09:37:42.128Z,12.65
2018-03-19T09:40:09.009Z,9.70
2018-03-19T09:42:35.955Z,11.53
2018-03-19T09:45:02.903Z,12.67
2018-03-19T09:47:29.850Z,10.90
2018-03-19T09:49:56.725Z,10.53
2018-03-19T09:52:23.667Z,13.52
2018-03-19T09:54:50.615Z,11.80
2018-03-19T09:57:17.495Z,11.10
2018-03-19T09:59:44.550Z,11.70
2018-03-19T10:02:11.507Z,11.82
2018-03-19T10:04:38.394Z,10.40
2018-03-19T10:07:05.280Z,10.07
2018-03-19T10:09:32.232Z,14.10
2018-03-19T10:11:59.112Z,12.85
2018-03-19T10:14:26.824Z,12.57
2018-03-19T10:16:53.749Z,11.05
2018-03-19T10:19:20.624Z,13.10
2018-03-19T10:21:47.562Z,12.90
2018-03-19T10:24:14.539Z,12.50
2018-03-19T10:26:41.424Z,12.00
2018-03-19T10:29:08.308Z,11.63
2018-03-19T10:31:35.242Z,11.82
2018-03-19T10:34:02.127Z,11.07
2018-03-19T10:36:29.071Z,11.23
2018-03-19T10:38:56.016Z,13.70
2018-03-19T10:41:22.907Z,12.55
2018-03-19T10:43:49.917Z,13.32
2018-03-19T10:46:16.868Z,11.25
2018-03-19T10:48:43.751Z,16.17
2018-03-19T10:51:10.685Z,13.07
2018-03-19T10:53:37.562Z,12.05
2018-03-19T10:56:04.515Z,11.52
2018-03-19T10:58:31.550Z,19.90
2018-03-19T11:01:04.318Z,21.33
2018-03-19T11:03:31.354Z,13.80
2018-03-19T11:06:04.224Z,12.15
2018-03-19T11:08:33.891Z,13.20
2018-03-19T11:11:00.843Z,12.00
2018-03-19T11:13:27.727Z,14.70
2018-03-19T11:15:55.412Z,12.05
2018-03-19T11:18:22.298Z,14.15
2018-03-19T11:20:49.255Z,14.23
2018-03-19T11:23:16.151Z,11.75
2018-03-19T11:25:43.111Z,12.25
2018-03-19T11:28:10.064Z,11.90
2018-03-19T11:30:37.037Z,12.57
2018-03-19T11:33:03.937Z,12.70
2018-03-19T11:35:30.842Z,12.15
2018-03-19T11:37:57.796Z,11.55
2018-03-19T11:40:25.488Z,11.35
2018-03-19T11:42:52.360Z,11.50
2018-03-19T11:45:19.308Z,12.32
2018-03-19T11:47:46.187Z,12.30
2018-03-19T11:50:13.138Z,12.02
2018-03-19T11:52:40.076Z,12.57
2018-03-19T11:55:07.078Z,13.27
2018-03-19T11:57:33.955Z,13.20
2018-03-19T12:00:00.912Z,10.10
2018-03-19T12:02:27.875Z,11.10
2018-03-19T12:04:55.499Z,11.15
2018-03-19T12:07:22.472Z,11.32
2018-03-19T12:09:49.424Z,11.30
2018-03-19T12:12:16.316Z,10.18
2018-03-19T12:14:43.205Z,10.68
2018-03-19T12:17:10.134Z,10.70
2018-03-19T12:19:37.067Z,11.75
2018-03-19T12:22:05.084Z,10.85
2018-03-19T12:24:32.709Z,11.48
2018-03-19T12:26:59.756Z,12.05
2018-03-19T12:29:26.648Z,10.20
2018-03-19T12:31:54.259Z,10.80
2018-03-19T12:34:21.256Z,11.85
2018-03-19T12:36:48.940Z,11.20
2018-03-19T12:39:15.872Z,11.02
2018-03-19T12:41:42.750Z,10.10
2018-03-19T12:44:09.692Z,11.57
2018-03-19T12:46:36.656Z,11.18
2018-03-19T12:49:04.266Z,9.82
2018-03-19T12:51:32.612Z,11.32
2018-03-19T12:53:59.575Z,13.30
2018-03-19T12:56:26.526Z,12.10
2018-03-19T12:58:53.396Z,12.65
2018-03-19T13:01:20.339Z,13.20
2018-03-19T13:03:47.298Z,13.40
2018-03-19T13:06:14.200Z,13.88
2018-03-19T13:08:41.151Z,13.20
2018-03-19T13:11:14.714Z,13.38
2018-03-19T13:13:41.696Z,10.82
2018-03-19T13:16:10.034Z,13.55
2018-03-19T13:18:38.294Z,12.48
2018-03-19T13:21:07.288Z,13.35
2018-03-19T13:23:44.373Z,13.35
2018-03-19T13:26:20.593Z,13.75
2018-03-19T13:29:03.339Z,14.23
2018-03-19T13:31:31.056Z,13.00
2018-03-19T13:33:59.108Z,12.65
2018-03-19T13:36:26.062Z,13.32
2018-03-19T13:38:59.815Z,13.95
2018-03-19T13:41:27.551Z,12.95
2018-03-19T13:43:54.411Z,13.73
2018-03-19T13:46:21.332Z,13.98
2018-03-19T13:48:48.529Z,13.10
2018-03-19T13:51:16.239Z,12.37
2018-03-19T13:53:49.320Z,12.80
2018-03-19T13:56:17.058Z,12.23
2018-03-19T13:58:43.936Z,14.75
2018-03-19T14:01:17.795Z,12.88
2018-03-19T14:03:45.281Z,12.50
2018-03-19T14:06:19.023Z,13.05
2018-03-19T14:08:46.478Z,13.55
2018-03-19T14:11:13.517Z,12.43
2018-03-19T14:13:40.476Z,13.30
2018-03-19T14:16:07.348Z,12.68
2018-03-19T14:18:39.025Z,13.62
2018-03-19T14:21:11.830Z,14.40
2018-03-19T14:23:41.683Z,18.33
2018-03-19T14:26:08.577Z,13.75
2018-03-19T14:28:37.535Z,13.85
2018-03-19T14:31:17.739Z,13.73
2018-03-19T14:33:45.436Z,12.60
2018-03-19T14:36:13.613Z,12.30
2018-03-19T14:38:47.700Z,13.62
2018-03-19T14:41:31.216Z,13.50
2018-03-19T14:44:05.984Z,16.10
2018-03-19T14:46:41.258Z,12.40
2018-03-19T14:49:16.039Z,13.85
2018-03-19T14:51:55.932Z,12.82
2018-03-19T14:54:36.062Z,13.10
2018-03-19T14:57:11.296Z,13.52
2018-03-19T14:59:45.797Z,14.13
2018-03-19T15:02:13.217Z,13.40
2018-03-19T15:04:40.123Z,12.65
2018-03-19T15:07:07.132Z,14.52
2018-03-19T15:09:34.801Z,11.68
2018-03-19T15:12:01.752Z,13.98
2018-03-19T15:14:28.679Z,11.57
2018-03-19T15:16:55.637Z,12.30
2018-03-19T15:19:22.524Z,13.95
2018-03-19T15:21:49.500Z,12.60
2018-03-19T15:24:16.385Z,13.07
2018-03-19T15:26:43.264Z,13.10
2018-03-19T15:29:10.195Z,12.00
2018-03-19T15:31:37.145Z,12.52
2018-03-19T15:34:04.108Z,12.73
2018-03-19T15:36:30.987Z,13.65
2018-03-19T15:38:58.604Z,11.80
2018-03-19T15:41:25.598Z,12.98
2018-03-19T15:43:52.475Z,11.93
2018-03-19T15:46:19.427Z,11.60
2018-03-19T15:48:46.297Z,11.68
2018-03-19T15:51:13.253Z,13.57
2018-03-19T15:53:40.198Z,12.95
2018-03-19T15:56:07.131Z,11.82
2018-03-19T15:58:38.854Z,13.50
2018-03-19T16:01:05.794Z,13.65
2018-03-19T16:03:32.661Z,12.73
2018-03-19T16:06:07.343Z,11.93
2018-03-19T16:08:34.618Z,12.95
2018-03-19T16:11:10.941Z,12.70
2018-03-19T16:13:39.139Z,12.57
2018-03-19T16:16:18.654Z,11.70
2018-03-19T16:18:48.525Z,12.60
2018-03-19T16:21:26.834Z,13.65
2018-03-19T16:24:04.820Z,12.13
2018-03-19T16:26:35.144Z,14.10
2018-03-19T16:29:08.521Z,12.10
2018-03-19T16:31:38.704Z,12.13
2018-03-19T16:34:09.951Z,11.50
2018-03-19T16:36:39.722Z,11.85
2018-03-19T16:39:10.487Z,13.30
2018-03-19T16:41:40.315Z,11.50
2018-03-19T16:44:10.675Z,12.00
2018-03-19T16:46:40.844Z,13.32
2018-03-19T16:49:11.838Z,14.15
2018-03-19T16:51:41.528Z,12.75
2018-03-19T16:54:09.710Z,11.75
2018-03-19T16:56:41.303Z,11.88
2018-03-19T16:59:11.839Z,21.05
2018-03-19T17:01:42.532Z,12.40
2018-03-19T17:04:13.319Z,10.48
2018-03-19T17:06:43.528Z,14.07
2018-03-19T17:09:13.674Z,13.02
2018-03-19T17:11:44.296Z,10.05
2018-03-19T17:14:14.862Z,12.68
2018-03-19T17:16:45.814Z,11.38
2018-03-19T17:19:18.065Z,11.00
2018-03-19T17:21:49.325Z,11.68
2018-03-19T17:24:20.376Z,12.95
2018-03-19T17:26:50.437Z,11.52
2018-03-19T17:29:21.191Z,11.75
2018-03-19T17:31:52.072Z,12.00
2018-03-19T17:34:23.167Z,15.40
2018-03-19T17:36:53.201Z,18.70
2018-03-19T17:39:23.732Z,13.73
2018-03-19T17:41:53.187Z,17.87
2018-03-19T17:44:24.418Z,13.13
2018-03-19T17:46:54.182Z,15.93
2018-03-19T17:49:23.719Z,17.27
2018-03-19T17:51:54.539Z,15.45
2018-03-19T17:54:25.159Z,14.30
2018-03-19T17:56:55.814Z,14.73
2018-03-19T17:59:26.289Z,13.88
2018-03-19T18:01:54.655Z,13.93
2018-03-19T18:04:21.703Z,14.18
2018-03-19T18:06:48.590Z,14.57
2018-03-19T18:09:16.279Z,14.23
2018-03-19T18:11:43.200Z,14.23
2018-03-19T18:14:10.282Z,13.57
2018-03-19T18:16:37.222Z,15.20
2018-03-19T18:19:04.188Z,13.90
2018-03-19T18:21:31.099Z,16.58
2018-03-19T18:23:58.073Z,16.27
2018-03-19T18:26:25.063Z,15.18
2018-03-19T18:28:51.931Z,14.75
2018-03-19T18:31:18.801Z,15.48
2018-03-19T18:33:45.751Z,15.35
2018-03-19T18:36:12.639Z,15.60
2018-03-19T18:38:39.499Z,14.87
2018-03-19T18:41:06.497Z,16.08
2018-03-19T18:43:33.469Z,16.65
2018-03-19T18:46:00.368Z,16.65
2018-03-19T18:48:27.260Z,13.70
2018-03-19T18:50:55.025Z,16.52
2018-03-19T18:53:21.911Z,17.42
2018-03-19T18:55:48.864Z,16.55
2018-03-19T18:58:16.075Z,15.27
2018-03-19T19:00:44.142Z,15.55
2018-03-19T19:03:11.816Z,17.48
2018-03-19T19:05:38.799Z,17.42
2018-03-19T19:08:05.787Z,16.35
2018-03-19T19:10:32.784Z,16.33
2018-03-19T19:12:59.687Z,16.35
2018-03-19T19:15:26.608Z,15.68
2018-03-19T19:17:53.550Z,16.52
2018-03-19T19:20:20.488Z,16.20
2018-03-19T19:22:47.440Z,16.02
2018-03-19T19:25:14.312Z,15.75
2018-03-19T19:27:41.198Z,16.70
2018-03-19T19:30:08.885Z,18.27
2018-03-19T19:32:35.814Z,18.48
2018-03-19T19:35:02.801Z,18.10
2018-03-19T19:37:29.733Z,16.50
2018-03-19T19:39:56.694Z,17.98
2018-03-19T19:42:23.726Z,15.50
2018-03-19T19:44:50.664Z,16.60
2018-03-19T19:47:17.543Z,17.10
2018-03-19T19:49:44.485Z,17.33
2018-03-19T19:52:11.360Z,16.08
2018-03-19T19:54:38.318Z,15.93
2018-03-19T19:57:06.027Z,16.40
2018-03-19T19:59:32.980Z,17.87
2018-03-19T20:01:59.924Z,16.98
2018-03-19T20:04:26.800Z,18.10
2018-03-19T20:06:53.753Z,16.98
2018-03-19T20:09:20.629Z,17.60
2018-03-19T20:11:47.530Z,18.75
2018-03-19T20:14:14.464Z,17.62
2018-03-19T20:16:41.389Z,19.05
2018-03-19T20:19:08.271Z,21.48
2018-03-19T20:21:35.212Z,16.52
2018-03-19T20:24:02.085Z,15.95
2018-03-19T20:26:29.079Z,17.85
2018-03-19T20:28:56.014Z,18.23
2018-03-19T20:31:22.876Z,18.30
2018-03-19T20:33:49.826Z,16.58
2018-03-19T20:36:16.792Z,16.23
2018-03-19T20:38:45.436Z,16.15
2018-03-19T20:41:12.660Z,15.15
2018-03-19T20:43:40.347Z,19.30
2018-03-19T20:46:07.306Z,16.75
2018-03-19T20:48:34.183Z,18.15
2018-03-19T20:51:01.181Z,17.90
2018-03-19T20:53:28.061Z,16.05
2018-03-19T20:55:55.079Z,17.80
2018-03-19T20:58:22.047Z,15.50
2018-03-19T21:00:49.698Z,16.40
2018-03-19T21:03:16.732Z,15.88
2018-03-19T21:05:43.687Z,17.00
2018-03-19T21:08:10.561Z,18.23
2018-03-19T21:13:32.527Z,18.67
2018-03-19T21:15:59.582Z,19.30
2018-03-19T21:18:27.376Z,17.58
2018-03-19T21:20:56.061Z,18.15
2018-03-19T21:23:23.198Z,17.85
2018-03-19T21:25:52.124Z,17.02
2018-03-19T21:28:19.960Z,17.35
2018-03-19T21:30:48.617Z,18.55
2018-03-19T21:33:16.731Z,15.80
2018-03-19T21:35:45.707Z,17.25
2018-03-19T21:38:14.829Z,20.00
2018-03-19T21:40:41.913Z,17.87
2018-03-19T21:43:08.853Z,19.30
2018-03-19T21:45:35.817Z,15.88
2018-03-19T21:48:02.728Z,17.80
2018-03-19T21:50:29.672Z,16.20
2018-03-19T21:52:57.909Z,17.08
2018-03-19T21:55:25.029Z,19.85
2018-03-19T21:58:01.075Z,18.10
2018-03-19T22:00:39.713Z,19.17
2018-03-19T22:03:18.088Z,20.05
2018-03-19T22:05:56.826Z,18.50
2018-03-19T22:08:36.209Z,18.15
2018-03-19T22:11:13.078Z,18.95
2018-03-19T22:13:52.462Z,18.98
2018-03-19T22:16:30.330Z,17.52
2018-03-19T22:19:08.928Z,17.80
2018-03-19T22:21:46.063Z,19.65
2018-03-19T22:24:24.552Z,20.73
2018-03-19T22:26:52.577Z,21.45
2018-03-19T22:29:26.006Z,18.75
2018-03-19T22:32:04.629Z,17.77
2018-03-19T22:34:43.963Z,21.37
2018-03-19T22:37:22.815Z,18.08
2018-03-19T22:39:51.175Z,18.70
2018-03-19T22:42:21.978Z,18.70
2018-03-19T22:44:49.601Z,20.25
2018-03-19T22:47:16.584Z,18.35
2018-03-19T22:49:55.547Z,17.90
2018-03-19T22:52:23.433Z,19.42
2018-03-19T22:54:50.816Z,19.05
2018-03-19T22:57:18.496Z,18.27
2018-03-19T22:59:45.456Z,21.98
2018-03-19T23:02:23.270Z,19.60
2018-03-19T23:05:10.517Z,20.95
2018-03-19T23:07:50.009Z,19.77
2018-03-19T23:10:27.980Z,17.30
2018-03-19T23:13:06.896Z,17.98
2018-03-19T23:15:41.884Z,15.85
2018-03-19T23:18:08.844Z,17.35
2018-03-19T23:20:47.567Z,17.33
2018-03-19T23:23:25.833Z,16.45
2018-03-19T23:26:03.503Z,18.33
2018-03-19T23:28:43.730Z,17.15
2018-03-19T23:31:21.859Z,15.82
2018-03-19T23:33:49.617Z,17.20
2018-03-19T23:36:27.558Z,17.20
2018-03-19T23:39:06.903Z,17.45
2018-03-19T23:41:37.059Z,14.75
2018-03-19T23:44:03.994Z,16.55
2018-03-19T23:46:42.299Z,15.32
2018-03-19T23:49:20.397Z,16.12
2018-03-19T23:51:47.649Z,16.45
2018-03-19T23:54:32.707Z,15.77
2018-03-19T23:57:11.158Z,15.50
2018-03-19T23:59:38.869Z,15.82
